createdAt,value
2022-12-31T00:04:19.908Z,68.90
2022-12-31T00:09:40.728Z,68.79
2022-12-31T00:15:01.363Z,68.86
2022-12-31T00:20:21.991Z,68.97
2022-12-31T00:25:42.701Z,69.14
2022-12-31T00:31:08.047Z,69.08
2022-12-31T00:36:31.708Z,69.16
2022-12-31T00:41:52.614Z,69.12
2022-12-31T00:47:13.341Z,69.77
2022-12-31T00:52:34.214Z,69.50
2022-12-31T00:57:54.873Z,69.73
2022-12-31T01:03:15.593Z,70.05
2022-12-31T01:08:36.394Z,70.04
2022-12-31T01:14:09.304Z,70.07
2022-12-31T01:19:30.445Z,70.34
2022-12-31T01:24:51.311Z,70.64
2022-12-31T01:30:12.435Z,70.56
2022-12-31T01:35:35.395Z,70.70
2022-12-31T01:40:56.202Z,71.00
2022-12-31T01:46:49.618Z,70.96
2022-12-31T01:52:18.140Z,71.17
2022-12-31T01:57:39.250Z,71.83
2022-12-31T02:03:00.822Z,71.75
2022-12-31T02:08:22.035Z,71.79
2022-12-31T02:13:42.616Z,71.95
2022-12-31T02:19:35.710Z,72.16
2022-12-31T02:25:14.744Z,72.35
2022-12-31T02:30:37.329Z,72.47
2022-12-31T02:36:01.819Z,72.73
2022-12-31T02:41:41.287Z,72.61
2022-12-31T02:47:07.956Z,72.52
2022-12-31T02:53:00.737Z,72.67
2022-12-31T02:58:55.716Z,72.80
2022-12-31T03:04:32.986Z,73.11
2022-12-31T03:09:54.579Z,73.25
2022-12-31T03:15:20.151Z,73.41
2022-12-31T03:21:05.517Z,73.29
2022-12-31T03:26:26.231Z,73.68
2022-12-31T03:31:46.778Z,73.36
2022-12-31T03:37:08.572Z,73.45
2022-12-31T03:42:29.133Z,73.31
2022-12-31T03:47:49.977Z,73.33
2022-12-31T03:53:10.865Z,73.63
2022-12-31T03:58:31.662Z,73.33
2022-12-31T04:03:52.345Z,73.72
2022-12-31T04:09:13.127Z,73.84
2022-12-31T04:14:33.832Z,73.46
2022-12-31T04:19:54.481Z,73.52
2022-12-31T04:25:15.432Z,73.56
2022-12-31T04:30:36.387Z,73.71
2022-12-31T04:36:07.242Z,73.80
2022-12-31T04:41:28.152Z,73.73
2022-12-31T04:46:48.717Z,73.65
2022-12-31T04:52:09.449Z,73.76
2022-12-31T04:57:30.115Z,74.06
2022-12-31T05:02:51.008Z,73.71
2022-12-31T05:08:13.354Z,73.72
2022-12-31T05:13:34.726Z,73.98
2022-12-31T05:18:55.734Z,74.05
2022-12-31T05:24:16.592Z,74.13
2022-12-31T05:29:37.340Z,73.99
2022-12-31T05:34:59.816Z,74.26
2022-12-31T05:40:21.018Z,73.94
2022-12-31T05:45:42.116Z,74.10
2022-12-31T05:51:02.821Z,74.45
2022-12-31T05:56:23.691Z,74.29
2022-12-31T06:01:44.310Z,74.24
2022-12-31T06:07:04.989Z,74.45
2022-12-31T06:12:25.885Z,74.47
2022-12-31T06:17:46.777Z,74.38
2022-12-31T06:23:07.409Z,74.41
2022-12-31T06:28:29.133Z,74.40
2022-12-31T06:33:49.707Z,74.30
2022-12-31T06:39:10.461Z,74.57
2022-12-31T06:44:31.375Z,74.40
2022-12-31T06:49:53.220Z,74.48
2022-12-31T06:55:14.409Z,74.11
2022-12-31T07:00:36.647Z,74.74
2022-12-31T07:06:06.279Z,74.86
2022-12-31T07:11:32.474Z,74.95
2022-12-31T07:17:18.212Z,75.13
2022-12-31T07:22:40.068Z,75.00
2022-12-31T07:28:03.983Z,75.11
2022-12-31T07:33:56.470Z,75.04
2022-12-31T07:39:28.323Z,74.94
2022-12-31T07:45:03.957Z,74.74
2022-12-31T07:50:24.957Z,74.57
2022-12-31T07:55:46.124Z,74.56
2022-12-31T08:01:13.463Z,74.58
2022-12-31T08:07:19.656Z,74.36
2022-12-31T08:12:41.587Z,74.25
2022-12-31T08:18:02.630Z,74.31
2022-12-31T08:24:13.445Z,74.11
2022-12-31T08:30:07.947Z,73.90
2022-12-31T08:35:47.060Z,73.94
2022-12-31T08:41:39.039Z,73.73
2022-12-31T08:47:03.265Z,73.57
2022-12-31T08:52:26.477Z,73.59
2022-12-31T08:58:22.548Z,73.36
2022-12-31T09:04:11.587Z,73.46
2022-12-31T09:10:09.010Z,73.16
2022-12-31T09:15:46.352Z,73.16
2022-12-31T09:21:10.406Z,73.13
2022-12-31T09:26:34.752Z,73.07
2022-12-31T09:32:06.925Z,73.10
2022-12-31T09:37:38.393Z,73.07
2022-12-31T09:43:33.262Z,73.04
2022-12-31T09:49:03.238Z,73.11
2022-12-31T09:54:30.184Z,72.98
2022-12-31T10:00:06.351Z,72.83
2022-12-31T10:05:59.529Z,72.76
2022-12-31T10:11:52.470Z,72.92
2022-12-31T10:17:48.916Z,72.83
2022-12-31T10:23:40.413Z,72.88
2022-12-31T10:29:38.884Z,72.71
2022-12-31T10:35:31.323Z,72.25
2022-12-31T10:40:52.048Z,72.06
2022-12-31T10:46:37.099Z,71.89
2022-12-31T10:52:23.435Z,71.89
2022-12-31T10:57:56.258Z,71.95
2022-12-31T11:04:09.846Z,71.27
2022-12-31T11:09:36.552Z,71.35
2022-12-31T11:15:06.634Z,71.00
2022-12-31T11:20:57.195Z,70.67
2022-12-31T11:26:36.656Z,70.61
2022-12-31T11:32:18.175Z,70.28
2022-12-31T11:38:10.133Z,70.13
2022-12-31T11:43:37.296Z,69.92
2022-12-31T11:48:57.925Z,70.26
2022-12-31T11:54:37.254Z,70.05
2022-12-31T12:00:13.691Z,69.69
2022-12-31T12:05:35.497Z,69.45
2022-12-31T12:11:06.419Z,69.19
2022-12-31T12:16:28.509Z,69.31
2022-12-31T12:21:51.009Z,69.03
2022-12-31T12:27:23.810Z,69.04
2022-12-31T12:33:00.105Z,69.23
2022-12-31T12:38:23.368Z,69.29
2022-12-31T12:43:44.152Z,68.69
2022-12-31T12:49:05.717Z,68.73
2022-12-31T12:54:36.901Z,68.49
2022-12-31T13:00:12.971Z,68.71
2022-12-31T13:05:33.783Z,68.62
2022-12-31T13:11:03.542Z,68.64
2022-12-31T13:16:53.295Z,68.44
2022-12-31T13:22:52.377Z,68.37
2022-12-31T13:28:16.640Z,68.38
2022-12-31T13:33:44.581Z,68.71
2022-12-31T13:39:13.304Z,68.11
2022-12-31T13:44:44.344Z,68.28
2022-12-31T13:50:17.801Z,67.97
2022-12-31T13:55:44.786Z,68.01
2022-12-31T14:01:16.139Z,67.92
2022-12-31T14:06:50.743Z,67.88
2022-12-31T14:12:38.206Z,67.91
2022-12-31T14:18:25.777Z,68.05
2022-12-31T14:24:15.996Z,67.70
2022-12-31T14:30:15.741Z,67.65
2022-12-31T14:35:49.246Z,67.82
2022-12-31T14:41:35.191Z,67.77
2022-12-31T14:47:11.589Z,67.35
2022-12-31T14:52:35.563Z,67.67
2022-12-31T14:58:27.203Z,67.62
2022-12-31T15:03:46.078Z,67.59
2022-12-31T15:09:23.875Z,67.61
2022-12-31T15:15:12.067Z,67.56
2022-12-31T15:20:45.189Z,67.55
2022-12-31T15:26:08.512Z,67.62
2022-12-31T15:31:30.438Z,67.51
2022-12-31T15:36:57.584Z,67.47
2022-12-31T15:42:38.442Z,67.75
2022-12-31T15:48:03.195Z,67.45
2022-12-31T15:53:23.887Z,67.53
2022-12-31T15:58:47.340Z,67.49
2022-12-31T16:04:19.744Z,67.60
2022-12-31T16:09:41.055Z,67.58
2022-12-31T16:15:02.475Z,67.44
2022-12-31T16:20:30.464Z,67.44
2022-12-31T16:25:54.168Z,67.75
2022-12-31T16:31:20.125Z,67.27
2022-12-31T16:36:41.269Z,67.56
2022-12-31T16:42:19.906Z,67.66
2022-12-31T16:47:41.576Z,67.37
2022-12-31T16:53:06.351Z,67.35
2022-12-31T16:58:37.270Z,67.18
2022-12-31T17:04:03.298Z,67.52
2022-12-31T17:09:34.255Z,67.37
2022-12-31T17:15:02.809Z,67.50
2022-12-31T17:20:30.488Z,67.37
2022-12-31T17:26:01.185Z,67.43
2022-12-31T17:31:57.306Z,67.40
2022-12-31T17:37:22.662Z,67.61
2022-12-31T17:42:43.354Z,67.43
2022-12-31T17:48:04.698Z,67.56
2022-12-31T17:53:25.791Z,67.41
2022-12-31T17:58:54.407Z,67.41
2022-12-31T18:04:17.832Z,67.56
2022-12-31T18:09:38.731Z,67.46
2022-12-31T18:14:59.472Z,67.42
2022-12-31T18:20:21.479Z,67.56
2022-12-31T18:31:02.051Z,67.39
2022-12-31T18:36:24.029Z,67.35
2022-12-31T18:41:49.643Z,67.36
2022-12-31T18:47:16.089Z,67.27
2022-12-31T18:52:36.619Z,67.37
2022-12-31T18:57:57.426Z,67.32
2022-12-31T19:03:24.084Z,67.17
2022-12-31T19:08:44.801Z,67.18
2022-12-31T19:14:24.217Z,67.15
2022-12-31T19:19:44.971Z,67.27
2022-12-31T19:25:18.511Z,67.17
2022-12-31T19:30:39.451Z,67.28
2022-12-31T19:36:00.391Z,66.87
2022-12-31T19:41:21.144Z,66.99
2022-12-31T19:46:42.931Z,67.04
2022-12-31T19:52:06.208Z,66.96
2022-12-31T19:57:26.989Z,67.03
2022-12-31T20:02:49.446Z,66.78
2022-12-31T20:08:12.130Z,66.77
2022-12-31T20:13:35.295Z,66.72
2022-12-31T20:18:56.768Z,66.82
2022-12-31T20:24:17.631Z,66.77
2022-12-31T20:29:38.644Z,66.78
2022-12-31T20:34:59.728Z,66.63
2022-12-31T20:40:20.444Z,66.64
2022-12-31T20:45:41.760Z,66.75
2022-12-31T20:51:02.575Z,66.49
2022-12-31T20:56:25.938Z,66.50
2022-12-31T21:02:20.077Z,66.65
2022-12-31T21:07:27.582Z,66.52
2022-12-31T21:12:53.381Z,66.59
2022-12-31T21:18:14.173Z,66.49
2022-12-31T21:23:34.871Z,66.38
2022-12-31T21:28:56.028Z,66.52
2022-12-31T21:34:16.890Z,66.60
2022-12-31T21:39:37.614Z,66.53
2022-12-31T21:44:59.053Z,66.60
2022-12-31T21:50:20.295Z,66.45
2022-12-31T21:55:59.704Z,66.42
2022-12-31T22:01:40.588Z,66.44
2022-12-31T22:07:01.839Z,66.18
2022-12-31T22:12:22.505Z,66.23
2022-12-31T22:17:43.267Z,66.32
2022-12-31T22:23:04.100Z,66.18
2022-12-31T22:28:38.247Z,66.36
2022-12-31T22:34:00.372Z,66.47
2022-12-31T22:39:44.003Z,66.55
2022-12-31T22:45:01.951Z,66.53
2022-12-31T22:50:22.538Z,66.77
2022-12-31T22:55:43.295Z,66.55
2022-12-31T23:01:06.232Z,66.62
2022-12-31T23:06:27.044Z,66.57
2022-12-31T23:11:47.986Z,66.19
2022-12-31T23:17:37.258Z,66.27
2022-12-31T23:23:11.126Z,66.14
2022-12-31T23:28:32.110Z,66.31
2022-12-31T23:33:52.802Z,66.39
2022-12-31T23:39:13.646Z,66.14
2022-12-31T23:44:34.356Z,65.91
2022-12-31T23:49:55.006Z,66.06
2022-12-31T23:55:15.856Z,66.14
